createdAt,value
2018-08-06T00:01:23.863Z,24.10
2018-08-06T00:03:55.215Z,24.10
2018-08-06T00:06:26.661Z,24.00
2018-08-06T00:08:58.115Z,24.10
2018-08-06T00:11:29.875Z,24.20
2018-08-06T00:14:01.415Z,24.30
2018-08-06T00:16:33.064Z,24.20
2018-08-06T00:19:04.438Z,24.30
2018-08-06T00:21:35.999Z,24.20
2018-08-06T00:24:07.588Z,24.10
2018-08-06T00:26:39.060Z,23.90
2018-08-06T00:29:10.753Z,23.70
2018-08-06T00:31:42.359Z,23.90
2018-08-06T00:34:13.669Z,23.80
2018-08-06T00:36:45.508Z,23.80
2018-08-06T00:39:17.114Z,23.70
2018-08-06T00:41:48.554Z,23.70
2018-08-06T00:44:19.926Z,23.90
2018-08-06T00:46:51.394Z,24.10
2018-08-06T00:49:22.833Z,24.10
2018-08-06T00:51:54.200Z,24.00
2018-08-06T00:54:25.771Z,23.90
2018-08-06T00:56:57.425Z,23.80
2018-08-06T00:59:28.854Z,23.90
2018-08-06T01:02:00.736Z,23.90
2018-08-06T01:04:32.099Z,23.60
2018-08-06T01:07:03.642Z,23.50
2018-08-06T01:09:34.996Z,23.50
2018-08-06T01:12:06.899Z,23.50
2018-08-06T01:14:38.698Z,23.50
2018-08-06T01:17:10.476Z,23.60
2018-08-06T01:19:41.975Z,23.50
2018-08-06T01:22:13.540Z,23.50
2018-08-06T01:24:45.081Z,23.50
2018-08-06T01:27:16.580Z,23.50
2018-08-06T01:29:48.391Z,23.50
2018-08-06T01:32:19.895Z,23.50
2018-08-06T01:34:51.627Z,23.50
2018-08-06T01:37:23.115Z,23.40
2018-08-06T01:39:54.639Z,23.30
2018-08-06T01:42:26.015Z,23.30
2018-08-06T01:44:57.539Z,23.30
2018-08-06T01:47:29.178Z,23.30
2018-08-06T01:50:00.717Z,23.40
2018-08-06T01:52:32.182Z,23.40
2018-08-06T01:55:03.756Z,23.50
2018-08-06T01:57:35.347Z,23.50
2018-08-06T02:00:10.779Z,23.50
2018-08-06T02:02:42.302Z,23.50
2018-08-06T02:05:13.840Z,23.60
2018-08-06T02:07:45.414Z,23.60
2018-08-06T02:10:17.011Z,23.80
2018-08-06T02:12:48.625Z,23.90
2018-08-06T02:15:20.719Z,23.90
2018-08-06T02:17:52.243Z,23.80
2018-08-06T02:20:23.872Z,23.90
2018-08-06T02:22:55.356Z,23.80
2018-08-06T02:25:27.102Z,23.70
2018-08-06T02:27:58.840Z,23.70
2018-08-06T02:30:30.412Z,23.80
2018-08-06T02:33:02.370Z,23.80
2018-08-06T02:35:33.709Z,23.70
2018-08-06T02:38:05.075Z,23.60
2018-08-06T02:40:36.737Z,23.50
2018-08-06T02:43:08.296Z,23.30
2018-08-06T02:45:39.823Z,23.20
2018-08-06T02:48:11.379Z,23.10
2018-08-06T02:50:42.816Z,23.30
2018-08-06T02:53:14.391Z,23.40
2018-08-06T02:55:46.012Z,23.40
2018-08-06T02:58:17.387Z,23.40
2018-08-06T03:00:48.840Z,23.50
2018-08-06T03:03:21.252Z,23.60
2018-08-06T03:05:52.855Z,23.60
2018-08-06T03:08:24.296Z,23.40
2018-08-06T03:10:55.768Z,23.20
2018-08-06T03:13:27.227Z,23.10
2018-08-06T03:15:58.805Z,23.00
2018-08-06T03:18:30.541Z,23.00
2018-08-06T03:21:02.340Z,23.10
2018-08-06T03:23:33.856Z,23.20
2018-08-06T03:26:05.451Z,23.20
2018-08-06T03:28:37.232Z,23.30
2018-08-06T03:31:08.579Z,23.20
2018-08-06T03:33:40.376Z,23.00
2018-08-06T03:36:12.167Z,22.90
2018-08-06T03:38:43.447Z,22.90
2018-08-06T03:41:14.894Z,22.90
2018-08-06T03:43:46.571Z,23.00
2018-08-06T03:46:18.103Z,23.10
2018-08-06T03:48:49.729Z,23.00
2018-08-06T03:51:21.186Z,23.00
2018-08-06T03:53:52.551Z,23.00
2018-08-06T03:56:24.112Z,23.10
2018-08-06T03:58:55.605Z,23.10
2018-08-06T04:01:27.491Z,23.20
2018-08-06T04:03:59.018Z,23.20
2018-08-06T04:06:30.709Z,23.40
2018-08-06T04:09:02.401Z,23.60
2018-08-06T04:11:34.315Z,23.70
2018-08-06T04:14:05.622Z,23.90
2018-08-06T04:16:42.205Z,23.90
2018-08-06T04:19:14.628Z,24.10
2018-08-06T04:21:46.368Z,24.00
2018-08-06T04:26:48.923Z,24.20
2018-08-06T04:29:20.913Z,24.40
2018-08-06T04:31:52.076Z,24.50
2018-08-06T04:34:23.472Z,24.70
2018-08-06T04:36:55.410Z,24.70
2018-08-06T04:39:27.129Z,24.80
2018-08-06T04:41:58.691Z,24.70
2018-08-06T04:44:30.540Z,24.80
2018-08-06T04:47:02.180Z,25.10
2018-08-06T04:49:33.926Z,25.30
2018-08-06T04:52:05.670Z,25.40
2018-08-06T04:54:37.235Z,25.30
2018-08-06T04:57:08.685Z,25.70
2018-08-06T04:59:40.509Z,25.90
2018-08-06T05:02:12.078Z,26.10
2018-08-06T05:04:43.757Z,26.30
2018-08-06T05:07:15.301Z,26.50
2018-08-06T05:12:17.638Z,27.10
2018-08-06T05:14:49.207Z,27.30
2018-08-06T05:17:20.650Z,27.60
2018-08-06T05:19:52.073Z,27.60
2018-08-06T05:22:23.660Z,27.60
2018-08-06T05:24:55.145Z,28.00
2018-08-06T05:27:26.431Z,28.30
2018-08-06T05:29:57.870Z,28.40
2018-08-06T05:32:29.465Z,28.50
2018-08-06T05:35:00.946Z,28.70
2018-08-06T05:37:32.602Z,28.90
2018-08-06T05:40:04.279Z,29.10
2018-08-06T05:42:35.694Z,29.40
2018-08-06T05:45:09.708Z,29.70
2018-08-06T05:47:41.258Z,30.00
2018-08-06T05:50:14.358Z,29.90
2018-08-06T05:52:46.138Z,29.90
2018-08-06T05:55:17.582Z,30.00
2018-08-06T05:57:49.149Z,30.10
2018-08-06T06:00:20.930Z,30.20
2018-08-06T06:02:52.527Z,30.00
2018-08-06T06:05:24.156Z,30.10
2018-08-06T06:07:55.623Z,30.60
2018-08-06T06:10:27.018Z,30.90
2018-08-06T06:12:58.330Z,31.30
2018-08-06T06:15:29.718Z,31.80
2018-08-06T06:18:01.083Z,32.00
2018-08-06T06:20:32.560Z,32.10
2018-08-06T06:23:04.165Z,32.60
2018-08-06T06:25:35.688Z,32.20
2018-08-06T06:28:07.255Z,32.00
2018-08-06T06:30:38.574Z,32.40
2018-08-06T06:33:10.190Z,32.60
2018-08-06T06:35:41.540Z,33.10
2018-08-06T06:38:13.093Z,33.00
2018-08-06T06:40:44.635Z,33.10
2018-08-06T06:43:16.020Z,32.90
2018-08-06T06:45:47.279Z,33.40
2018-08-06T06:48:18.611Z,33.30
2018-08-06T06:50:50.090Z,33.60
2018-08-06T06:53:21.695Z,34.00
2018-08-06T06:55:53.087Z,34.10
2018-08-06T06:58:24.600Z,34.40
2018-08-06T07:00:56.087Z,34.20
2018-08-06T07:03:27.512Z,34.40
2018-08-06T07:05:59.180Z,34.00
2018-08-06T07:08:31.217Z,34.60
2018-08-06T07:11:02.747Z,34.60
2018-08-06T07:13:34.192Z,34.80
2018-08-06T07:16:05.715Z,35.20
2018-08-06T07:18:37.631Z,35.50
2018-08-06T07:21:09.065Z,35.70
2018-08-06T07:23:40.534Z,36.10
2018-08-06T07:26:12.122Z,36.20
2018-08-06T07:28:43.813Z,36.40
2018-08-06T07:31:15.128Z,36.40
2018-08-06T07:33:46.784Z,36.60
2018-08-06T07:36:18.271Z,36.90
2018-08-06T07:38:49.758Z,36.80
2018-08-06T07:41:21.166Z,36.70
2018-08-06T07:43:52.714Z,36.60
2018-08-06T07:46:24.318Z,36.40
2018-08-06T07:48:55.829Z,36.10
2018-08-06T07:51:27.348Z,36.70
2018-08-06T07:53:58.776Z,35.80
2018-08-06T07:56:30.434Z,36.60
2018-08-06T07:59:01.789Z,37.20
2018-08-06T08:01:33.292Z,36.90
2018-08-06T08:06:35.560Z,37.40
2018-08-06T08:09:10.859Z,37.20
2018-08-06T08:11:42.886Z,37.50
2018-08-06T08:14:14.458Z,37.30
2018-08-06T08:16:45.833Z,37.90
2018-08-06T08:19:17.349Z,37.80
2018-08-06T08:21:48.840Z,38.10
2018-08-06T08:24:20.700Z,38.10
2018-08-06T08:26:52.157Z,38.20
2018-08-06T08:29:23.624Z,38.90
2018-08-06T08:31:55.163Z,39.20
2018-08-06T08:34:26.722Z,38.90
2018-08-06T08:36:58.337Z,38.70
2018-08-06T08:39:29.855Z,38.80
2018-08-06T08:42:01.264Z,39.00
2018-08-06T08:44:32.704Z,39.40
2018-08-06T08:47:04.203Z,39.30
2018-08-06T08:49:35.676Z,39.00
2018-08-06T08:52:07.218Z,38.50
2018-08-06T08:54:38.870Z,38.70
2018-08-06T08:57:10.835Z,38.30
2018-08-06T08:59:42.341Z,38.30
2018-08-06T09:02:13.720Z,38.50
2018-08-06T09:04:45.157Z,38.90
2018-08-06T09:07:16.834Z,39.60
2018-08-06T09:09:48.155Z,38.90
2018-08-06T09:12:19.718Z,39.40
2018-08-06T09:14:51.279Z,39.20
2018-08-06T09:17:23.194Z,39.10
2018-08-06T09:19:54.600Z,39.30
2018-08-06T09:22:26.158Z,39.00
2018-08-06T09:24:57.835Z,39.00
2018-08-06T09:27:29.477Z,39.30
2018-08-06T09:30:00.974Z,39.30
2018-08-06T09:32:32.714Z,39.10
2018-08-06T09:35:04.396Z,38.80
2018-08-06T09:37:35.916Z,39.30
2018-08-06T09:40:11.117Z,39.80
2018-08-06T09:42:43.278Z,39.50
2018-08-06T09:45:16.110Z,39.00
2018-08-06T09:47:48.630Z,39.70
2018-08-06T09:50:20.884Z,39.30
2018-08-06T09:52:53.293Z,38.70
2018-08-06T09:55:27.106Z,38.90
2018-08-06T09:57:58.808Z,39.60
2018-08-06T10:00:35.002Z,39.60
2018-08-06T10:03:06.690Z,40.00
2018-08-06T10:05:38.178Z,40.20
2018-08-06T10:08:09.796Z,40.00
2018-08-06T10:10:41.082Z,40.30
2018-08-06T10:13:12.601Z,40.20
2018-08-06T10:15:43.979Z,39.80
2018-08-06T10:18:15.592Z,39.90
2018-08-06T10:20:47.038Z,39.40
2018-08-06T10:23:18.622Z,39.10
2018-08-06T10:25:50.251Z,39.60
2018-08-06T10:28:21.891Z,39.60
2018-08-06T10:30:53.467Z,39.40
2018-08-06T10:33:24.806Z,39.60
2018-08-06T10:35:56.737Z,39.80
2018-08-06T10:38:28.207Z,39.60
2018-08-06T10:40:59.679Z,39.10
2018-08-06T10:43:31.258Z,39.50
2018-08-06T10:46:02.594Z,40.00
2018-08-06T10:48:34.118Z,38.90
2018-08-06T10:51:05.569Z,38.90
2018-08-06T10:53:37.175Z,38.00
2018-08-06T10:56:08.799Z,38.20
2018-08-06T10:58:40.320Z,37.90
2018-08-06T11:01:11.709Z,37.90
2018-08-06T11:03:43.156Z,38.20
2018-08-06T11:06:14.750Z,38.30
2018-08-06T11:08:46.614Z,38.70
2018-08-06T11:11:18.049Z,38.70
2018-08-06T11:13:49.927Z,38.40
2018-08-06T11:16:21.746Z,38.50
2018-08-06T11:18:53.214Z,38.50
2018-08-06T11:21:24.712Z,38.70
2018-08-06T11:23:56.332Z,38.80
2018-08-06T11:26:27.756Z,38.20
2018-08-06T11:28:59.280Z,37.80
2018-08-06T11:31:30.740Z,37.50
2018-08-06T11:34:02.257Z,37.80
2018-08-06T11:36:33.683Z,37.80
2018-08-06T11:39:06.853Z,37.60
2018-08-06T11:41:38.614Z,37.70
2018-08-06T11:44:10.940Z,37.40
2018-08-06T11:46:42.618Z,37.40
2018-08-06T11:49:13.995Z,36.80
2018-08-06T11:51:45.334Z,36.90
2018-08-06T11:54:17.027Z,36.90
2018-08-06T11:56:48.453Z,36.40
2018-08-06T11:59:19.907Z,36.30
2018-08-06T12:01:52.370Z,36.20
2018-08-06T12:04:24.030Z,36.40
2018-08-06T12:06:55.883Z,36.20
2018-08-06T12:09:27.243Z,36.20
2018-08-06T12:11:58.541Z,35.70
2018-08-06T12:17:00.983Z,35.90
2018-08-06T12:19:32.444Z,35.70
2018-08-06T12:22:03.919Z,35.60
2018-08-06T12:24:35.341Z,35.70
2018-08-06T12:27:07.284Z,35.70
2018-08-06T12:29:38.741Z,35.70
2018-08-06T12:32:10.544Z,35.30
2018-08-06T12:34:42.227Z,35.60
2018-08-06T12:37:13.677Z,35.50
2018-08-06T12:39:45.256Z,35.50
2018-08-06T12:42:16.880Z,35.60
2018-08-06T12:44:48.374Z,34.90
2018-08-06T12:47:19.698Z,34.70
2018-08-06T12:49:51.048Z,35.10
2018-08-06T12:52:22.519Z,35.00
2018-08-06T12:54:54.006Z,34.90
2018-08-06T12:57:25.391Z,34.30
2018-08-06T12:59:56.623Z,34.60
2018-08-06T13:02:28.491Z,34.80
2018-08-06T13:05:00.046Z,34.70
2018-08-06T13:07:32.592Z,34.70
2018-08-06T13:10:04.282Z,34.90
2018-08-06T13:12:36.925Z,35.00
2018-08-06T13:15:10.421Z,35.00
2018-08-06T13:17:41.856Z,34.90
2018-08-06T13:20:13.707Z,34.70
2018-08-06T13:22:45.223Z,35.20
2018-08-06T13:25:16.501Z,35.10
2018-08-06T13:27:47.914Z,35.00
2018-08-06T13:30:19.298Z,35.10
2018-08-06T13:32:50.799Z,35.10
2018-08-06T13:35:22.086Z,34.70
2018-08-06T13:37:53.687Z,34.50
2018-08-06T13:40:25.145Z,34.90
2018-08-06T13:42:56.806Z,34.80
2018-08-06T13:45:28.154Z,34.90
2018-08-06T13:47:59.551Z,35.10
2018-08-06T13:50:31.170Z,35.00
2018-08-06T13:53:03.048Z,34.90
2018-08-06T13:55:34.603Z,34.50
2018-08-06T13:58:06.468Z,34.60
2018-08-06T14:00:38.315Z,34.50
2018-08-06T14:03:10.067Z,34.70
2018-08-06T14:05:41.819Z,34.70
2018-08-06T14:08:13.171Z,34.80
2018-08-06T14:10:44.844Z,34.60
2018-08-06T14:13:16.581Z,34.40
2018-08-06T14:15:48.159Z,34.60
2018-08-06T14:18:19.965Z,34.60
2018-08-06T14:20:51.475Z,34.50
2018-08-06T14:23:23.127Z,34.40
2018-08-06T14:25:54.719Z,34.30
2018-08-06T14:28:26.323Z,34.20
2018-08-06T14:30:57.997Z,33.50
2018-08-06T14:33:29.785Z,33.00
2018-08-06T14:36:01.207Z,33.30
2018-08-06T14:38:32.628Z,33.70
2018-08-06T14:41:04.579Z,33.70
2018-08-06T14:46:07.305Z,33.70
2018-08-06T14:48:38.829Z,33.90
2018-08-06T14:51:11.289Z,34.00
2018-08-06T14:53:42.772Z,34.00
2018-08-06T14:56:14.303Z,33.90
2018-08-06T14:58:45.688Z,33.70
2018-08-06T15:01:17.118Z,33.70
2018-08-06T15:03:48.860Z,33.70
2018-08-06T15:06:20.629Z,33.70
2018-08-06T15:08:52.133Z,33.70
2018-08-06T15:11:23.861Z,33.80
2018-08-06T15:13:55.492Z,33.50
2018-08-06T15:16:27.117Z,33.30
2018-08-06T15:18:58.589Z,33.70
2018-08-06T15:21:30.111Z,33.70
2018-08-06T15:24:01.559Z,33.60
2018-08-06T15:26:33.017Z,33.60
2018-08-06T15:29:04.984Z,33.50
2018-08-06T15:31:36.448Z,33.60
2018-08-06T15:34:07.681Z,33.40
2018-08-06T15:36:39.184Z,33.10
2018-08-06T15:39:15.531Z,33.00
2018-08-06T15:41:46.891Z,33.00
2018-08-06T15:44:18.341Z,33.20
2018-08-06T15:46:50.189Z,33.20
2018-08-06T15:49:21.811Z,33.20
2018-08-06T15:51:53.147Z,33.10
2018-08-06T15:54:24.353Z,33.10
2018-08-06T15:56:55.627Z,33.20
2018-08-06T15:59:27.019Z,33.30
2018-08-06T16:01:58.827Z,33.30
2018-08-06T16:04:30.316Z,33.20
2018-08-06T16:07:01.822Z,33.00
2018-08-06T16:09:33.302Z,33.10
2018-08-06T16:12:04.855Z,33.00
2018-08-06T16:14:36.272Z,32.90
2018-08-06T16:17:07.945Z,32.80
2018-08-06T16:19:39.228Z,32.80
2018-08-06T16:22:10.618Z,32.60
2018-08-06T16:24:42.136Z,32.80
2018-08-06T16:27:14.108Z,32.60
2018-08-06T16:29:45.449Z,32.60
2018-08-06T16:32:17.198Z,32.60
2018-08-06T16:34:48.989Z,32.60
2018-08-06T16:37:20.543Z,32.40
2018-08-06T16:39:52.179Z,32.40
2018-08-06T16:42:23.846Z,32.60
2018-08-06T16:44:55.486Z,32.60
2018-08-06T16:47:27.150Z,32.50
2018-08-06T16:49:58.734Z,32.50
2018-08-06T16:52:30.396Z,32.60
2018-08-06T16:55:02.056Z,32.40
2018-08-06T16:57:33.750Z,32.40
2018-08-06T17:00:06.976Z,32.30
2018-08-06T17:02:38.486Z,32.10
2018-08-06T17:05:12.523Z,32.00
2018-08-06T17:07:45.268Z,32.00
2018-08-06T17:10:18.478Z,31.90
2018-08-06T17:12:52.702Z,31.80
2018-08-06T17:15:24.475Z,31.80
2018-08-06T17:17:57.081Z,31.90
2018-08-06T17:20:28.579Z,32.00
2018-08-06T17:23:00.249Z,31.80
2018-08-06T17:25:31.918Z,31.80
2018-08-06T17:28:03.256Z,31.90
2018-08-06T17:30:34.618Z,31.70
2018-08-06T17:33:06.384Z,31.60
2018-08-06T17:35:37.912Z,31.60
2018-08-06T17:38:09.302Z,31.40
2018-08-06T17:40:40.695Z,31.30
2018-08-06T17:43:12.577Z,31.30
2018-08-06T17:45:44.296Z,31.50
2018-08-06T17:48:15.873Z,31.40
2018-08-06T17:50:47.215Z,31.10
2018-08-06T17:53:18.646Z,31.00
2018-08-06T17:55:50.148Z,30.60
2018-08-06T17:58:21.783Z,30.50
2018-08-06T18:00:53.538Z,30.40
2018-08-06T18:03:25.119Z,30.40
2018-08-06T18:05:56.678Z,30.40
2018-08-06T18:08:28.434Z,30.30
2018-08-06T18:11:00.063Z,30.00
2018-08-06T18:13:31.778Z,29.80
2018-08-06T18:16:03.293Z,29.70
2018-08-06T18:18:34.915Z,29.60
2018-08-06T18:21:06.679Z,29.50
2018-08-06T18:23:38.456Z,29.50
2018-08-06T18:26:10.029Z,29.60
2018-08-06T18:28:41.573Z,29.60
2018-08-06T18:31:13.095Z,29.30
2018-08-06T18:33:44.756Z,29.30
2018-08-06T18:36:16.522Z,29.10
2018-08-06T18:38:48.079Z,29.00
2018-08-06T18:41:20.390Z,28.90
2018-08-06T18:43:52.080Z,28.90
2018-08-06T18:46:24.128Z,28.90
2018-08-06T18:48:55.667Z,29.00
2018-08-06T18:51:27.588Z,29.10
2018-08-06T18:53:59.483Z,29.10
2018-08-06T18:56:30.945Z,28.80
2018-08-06T18:59:02.497Z,28.70
2018-08-06T19:01:34.569Z,28.50
2018-08-06T19:06:38.167Z,28.50
2018-08-06T19:09:16.910Z,28.40
2018-08-06T19:11:48.442Z,28.20
2018-08-06T19:14:22.816Z,28.20
2018-08-06T19:16:54.501Z,28.10
2018-08-06T19:19:27.671Z,28.00
2018-08-06T19:21:59.605Z,27.80
2018-08-06T19:27:08.414Z,27.60
2018-08-06T19:29:40.907Z,27.70
2018-08-06T19:34:46.993Z,27.80
2018-08-06T19:37:23.880Z,27.30
2018-08-06T19:39:55.891Z,26.70
2018-08-06T19:42:31.658Z,26.80
2018-08-06T19:45:03.572Z,27.40
2018-08-06T19:47:35.320Z,27.40
2018-08-06T19:50:12.557Z,27.40
2018-08-06T19:52:44.258Z,27.40
2018-08-06T19:55:20.933Z,27.70
2018-08-06T19:57:52.697Z,27.90
2018-08-06T20:00:24.376Z,28.00
2018-08-06T20:02:55.795Z,28.00
2018-08-06T20:05:27.625Z,27.90
2018-08-06T20:07:59.112Z,27.90
2018-08-06T20:10:30.741Z,27.50
2018-08-06T20:13:02.447Z,27.50
2018-08-06T20:15:34.167Z,27.80
2018-08-06T20:18:05.780Z,27.80
2018-08-06T20:20:37.374Z,27.90
2018-08-06T20:23:09.035Z,28.00
2018-08-06T20:25:40.710Z,27.70
2018-08-06T20:28:12.480Z,27.60
2018-08-06T20:30:44.143Z,27.50
2018-08-06T20:33:16.171Z,27.50
2018-08-06T20:35:47.548Z,27.30
2018-08-06T20:38:19.164Z,27.50
2018-08-06T20:40:50.755Z,27.50
2018-08-06T20:43:22.436Z,27.40
2018-08-06T20:45:54.041Z,27.40
2018-08-06T20:48:25.661Z,27.30
2018-08-06T20:50:57.248Z,27.40
2018-08-06T20:53:28.864Z,27.20
2018-08-06T20:56:00.484Z,27.20
2018-08-06T20:58:32.114Z,27.20
2018-08-06T21:01:03.710Z,27.10
2018-08-06T21:03:35.629Z,27.10
2018-08-06T21:06:07.209Z,27.30
2018-08-06T21:08:38.626Z,27.10
2018-08-06T21:11:10.601Z,27.10
2018-08-06T21:13:43.391Z,27.00
2018-08-06T21:16:14.837Z,26.90
2018-08-06T21:18:46.365Z,26.90
2018-08-06T21:21:18.030Z,26.80
2018-08-06T21:23:49.583Z,26.90
2018-08-06T21:26:21.241Z,26.90
2018-08-06T21:28:52.762Z,26.70
2018-08-06T21:31:24.213Z,26.40
2018-08-06T21:33:55.781Z,26.30
2018-08-06T21:38:58.331Z,26.30
2018-08-06T21:41:29.785Z,26.30
2018-08-06T21:44:01.369Z,26.30
2018-08-06T21:46:33.084Z,26.30
2018-08-06T21:49:04.720Z,26.40
2018-08-06T21:51:36.465Z,26.40
2018-08-06T21:54:08.246Z,26.30
2018-08-06T21:56:39.756Z,26.20
2018-08-06T21:59:11.133Z,26.20
2018-08-06T22:01:43.062Z,26.20
2018-08-06T22:04:14.376Z,26.20
2018-08-06T22:06:45.815Z,26.10
2018-08-06T22:09:17.314Z,26.20
2018-08-06T22:11:48.497Z,26.20
2018-08-06T22:14:20.060Z,26.10
2018-08-06T22:16:51.980Z,26.00
2018-08-06T22:19:23.406Z,26.00
2018-08-06T22:21:54.731Z,25.90
2018-08-06T22:24:26.381Z,25.80
2018-08-06T22:26:58.063Z,25.80
2018-08-06T22:32:00.215Z,25.80
2018-08-06T22:34:31.903Z,25.90
2018-08-06T22:39:34.440Z,25.80
2018-08-06T22:42:05.960Z,25.80
2018-08-06T22:44:37.427Z,25.80
2018-08-06T22:47:08.969Z,25.60
2018-08-06T22:49:40.489Z,25.50
2018-08-06T22:52:12.147Z,25.40
2018-08-06T22:54:43.612Z,25.40
2018-08-06T22:57:15.195Z,25.60
2018-08-06T22:59:46.703Z,25.60
2018-08-06T23:02:18.174Z,25.50
2018-08-06T23:04:49.673Z,25.40
2018-08-06T23:07:21.421Z,25.40
2018-08-06T23:09:52.891Z,25.30
2018-08-06T23:12:24.489Z,25.10
2018-08-06T23:14:56.044Z,24.90
2018-08-06T23:17:27.537Z,24.90
2018-08-06T23:19:59.148Z,25.10
2018-08-06T23:22:30.690Z,25.00
2018-08-06T23:25:02.315Z,25.00
2018-08-06T23:27:34.051Z,25.00
2018-08-06T23:30:06.915Z,25.00
2018-08-06T23:32:38.634Z,24.90
2018-08-06T23:35:11.496Z,24.70
2018-08-06T23:37:44.240Z,24.80
2018-08-06T23:40:15.888Z,24.70
2018-08-06T23:42:47.470Z,24.80
2018-08-06T23:45:19.071Z,24.90
2018-08-06T23:47:50.312Z,24.80
2018-08-06T23:50:21.912Z,24.70
2018-08-06T23:52:53.423Z,24.70
2018-08-06T23:55:24.818Z,24.60
2018-08-06T23:57:56.438Z,24.50
